Time;durP1;ratioP1;P1;durP2;ratioP2;P2;SDS_P1;SDS_P2;PMS_P1;PMS_P2;Temp;Humidity;BMP_temperature;BMP_pressure;BME280_temperature;BME280_humidity;BME280_pressure;Samples;Min_cycle;Max_cycle;Signal;HPM_P1;HPM_P2
2023/05/26 00:00:04;;;;;;;6.13;3.47;;;15.60;99.90;;;;;;4590429;19;19922;-26
2023/05/26 00:01:57;;;;;;;4.50;3.20;;;15.60;99.90;;;;;;4588677;19;20437;-24
2023/05/26 00:03:29;;;;;;;6.80;3.67;;;15.60;99.90;;;;;;4588477;19;20042;-27
2023/05/26 00:05:01;;;;;;;6.20;3.40;;;15.60;99.90;;;;;;4589607;19;20015;-29
2023/05/26 00:06:34;;;;;;;7.07;3.70;;;15.50;99.90;;;;;;4589571;19;20070;-26
2023/05/26 00:08:07;;;;;;;;;;;15.50;99.90;;;;;;4591054;19;20020;-28
2023/05/26 00:09:39;;;;;;;5.82;3.53;;;15.50;99.90;;;;;;4589800;19;19922;-25
2023/05/26 00:11:11;;;;;;;6.93;3.70;;;15.50;99.90;;;;;;4589516;19;20007;-28
2023/05/26 00:12:42;;;;;;;6.47;3.95;;;15.50;99.90;;;;;;4590035;19;20066;-28
2023/05/26 00:14:15;;;;;;;;;;;15.50;99.90;;;;;;4590169;19;20103;-24
2023/05/26 00:15:46;;;;;;;6.35;3.65;;;15.40;99.90;;;;;;4589262;19;19943;-22
2023/05/26 00:17:18;;;;;;;6.55;4.20;;;15.40;99.90;;;;;;4590148;19;20007;-24
2023/05/26 00:18:49;;;;;;;5.22;3.05;;;15.40;99.90;;;;;;4590002;19;20062;-26
2023/05/26 00:20:23;;;;;;;5.57;3.72;;;15.40;99.90;;;;;;4589995;19;20013;-23
2023/05/26 00:21:56;;;;;;;5.45;3.70;;;15.40;99.90;;;;;;4589428;19;20096;-28
2023/05/26 00:23:29;;;;;;;4.65;3.03;;;15.40;99.90;;;;;;4589381;19;20014;-23
2023/05/26 00:25:00;;;;;;;7.63;3.83;;;15.40;99.90;;;;;;4590253;19;20482;-29
2023/05/26 00:26:33;;;;;;;6.13;4.00;;;15.30;99.90;;;;;;4589252;19;20512;-24
2023/05/26 00:28:05;;;;;;;6.63;4.05;;;15.30;99.90;;;;;;4588486;19;20501;-24
2023/05/26 00:29:37;;;;;;;5.95;3.50;;;15.30;99.90;;;;;;4589254;19;20018;-28
2023/05/26 00:31:09;;;;;;;5.60;3.63;;;15.30;99.90;;;;;;4589590;19;20003;-25
2023/05/26 00:32:40;;;;;;;6.40;3.72;;;15.30;99.90;;;;;;4589545;19;20045;-26
2023/05/26 00:34:11;;;;;;;7.63;4.28;;;15.30;99.90;;;;;;4589329;19;20042;-26
2023/05/26 00:35:44;;;;;;;6.82;4.38;;;15.20;99.90;;;;;;4589424;19;20468;-25
2023/05/26 00:37:16;;;;;;;;;;;15.20;99.90;;;;;;4590500;19;20472;-22
2023/05/26 00:38:48;;;;;;;6.73;4.70;;;15.20;99.90;;;;;;4591148;19;19919;-23
2023/05/26 00:40:20;;;;;;;7.28;4.75;;;15.20;99.90;;;;;;4593816;19;20516;-24
2023/05/26 00:41:54;;;;;;;6.25;4.60;;;15.20;99.90;;;;;;4593840;19;20010;-27
2023/05/26 00:43:27;;;;;;;7.35;4.20;;;15.10;99.90;;;;;;4592806;19;20006;-24
2023/05/26 00:44:58;;;;;;;5.45;4.15;;;15.10;99.90;;;;;;4593101;19;20370;-25
2023/05/26 00:46:30;;;;;;;5.72;3.63;;;15.10;99.90;;;;;;4593392;19;20037;-24
2023/05/26 00:48:04;;;;;;;9.27;5.15;;;15.10;99.90;;;;;;4593694;19;20010;-23
2023/05/26 00:49:36;;;;;;;6.55;4.15;;;15.10;99.90;;;;;;4592688;19;20419;-24
2023/05/26 00:51:11;;;;;;;6.93;4.53;;;15.10;99.90;;;;;;4593236;19;20081;-23
2023/05/26 00:52:44;;;;;;;6.70;4.03;;;15.10;99.90;;;;;;4592355;19;20011;-23
2023/05/26 00:54:16;;;;;;;5.15;3.35;;;15.10;99.90;;;;;;4592948;19;20078;-24
2023/05/26 00:55:50;;;;;;;6.45;3.60;;;15.00;99.90;;;;;;4592869;19;20018;-24
2023/05/26 00:57:23;;;;;;;5.30;3.58;;;15.00;99.90;;;;;;4593507;19;20013;-23
2023/05/26 00:58:54;;;;;;;7.40;4.30;;;15.00;99.90;;;;;;4593808;19;20007;-24
2023/05/26 01:00:27;;;;;;;8.80;4.60;;;15.00;99.90;;;;;;4594007;19;20343;-24
2023/05/26 01:01:58;;;;;;;5.82;3.97;;;15.00;99.90;;;;;;4593463;19;20025;-24
2023/05/26 01:03:31;;;;;;;6.47;3.55;;;15.00;99.90;;;;;;4591985;19;20029;-23
2023/05/26 01:05:06;;;;;;;7.60;4.15;;;15.00;99.90;;;;;;4593247;19;20015;-26
2023/05/26 01:06:40;;;;;;;6.78;4.32;;;15.00;99.90;;;;;;4591567;19;20153;-24
2023/05/26 01:08:13;;;;;;;7.45;3.97;;;14.90;99.90;;;;;;4593107;19;20083;-23
2023/05/26 01:09:46;;;;;;;7.65;4.55;;;15.00;99.90;;;;;;4593441;19;20010;-27
2023/05/26 01:11:34;;;;;;;6.20;4.10;;;14.90;99.90;;;;;;4592134;19;20015;-22
2023/05/26 01:13:18;;;;;;;8.45;4.18;;;14.90;99.90;;;;;;4592439;19;20030;-23
2023/05/26 01:14:54;;;;;;;6.68;4.00;;;14.90;99.90;;;;;;4592096;19;20011;-24
2023/05/26 01:16:28;;;;;;;8.68;4.30;;;14.90;99.90;;;;;;4591962;19;20082;-24
2023/05/26 01:18:06;;;;;;;6.78;4.40;;;14.80;99.90;;;;;;4591993;19;20011;-23
2023/05/26 01:20:07;;;;;;;7.60;4.40;;;14.80;99.90;;;;;;4592273;19;20022;-23
2023/05/26 01:21:39;;;;;;;6.82;4.35;;;14.80;99.90;;;;;;4592150;19;20460;-23
2023/05/26 01:23:33;;;;;;;6.40;4.55;;;14.80;99.90;;;;;;4592039;19;20513;-28
2023/05/26 01:25:23;;;;;;;6.50;3.92;;;14.70;99.90;;;;;;4593005;19;20043;-24
2023/05/26 01:27:06;;;;;;;7.60;3.92;;;14.70;99.90;;;;;;4592308;19;20017;-23
2023/05/26 01:28:38;;;;;;;7.43;4.70;;;14.70;99.90;;;;;;4591988;19;20015;-26
2023/05/26 01:30:10;;;;;;;7.13;4.45;;;14.70;99.90;;;;;;4591909;19;20078;-26
2023/05/26 01:31:43;;;;;;;7.05;4.47;;;14.70;99.90;;;;;;4592099;19;20049;-24
2023/05/26 01:33:16;;;;;;;7.55;4.10;;;14.70;99.90;;;;;;4591608;19;20031;-28
2023/05/26 01:34:48;;;;;;;5.43;3.72;;;14.70;99.90;;;;;;4592367;19;20034;-28
2023/05/26 01:36:23;;;;;;;5.85;4.22;;;14.70;99.90;;;;;;4592865;19;20014;-24
2023/05/26 01:37:54;;;;;;;7.82;4.80;;;14.70;99.90;;;;;;4591964;19;20034;-25
2023/05/26 01:39:28;;;;;;;6.05;3.90;;;14.60;99.90;;;;;;4592509;19;20022;-24
2023/05/26 01:41:23;;;;;;;8.00;4.90;;;14.60;99.90;;;;;;4592571;19;20010;-24
2023/05/26 01:43:02;;;;;;;7.22;3.83;;;14.60;99.90;;;;;;4592795;19;20357;-24
2023/05/26 01:44:57;;;;;;;7.53;4.00;;;14.60;99.90;;;;;;4593411;19;20021;-24
2023/05/26 01:46:31;;;;;;;6.05;4.15;;;14.60;99.90;;;;;;4591263;19;20035;-24
2023/05/26 01:48:03;;;;;;;7.93;4.68;;;14.60;99.90;;;;;;4592651;19;20006;-29
2023/05/26 01:49:35;;;;;;;6.90;4.68;;;14.60;99.90;;;;;;4590400;19;20002;-22
2023/05/26 01:51:06;;;;;;;5.97;4.45;;;14.60;99.90;;;;;;4589310;19;20349;-24
2023/05/26 01:52:41;;;;;;;7.18;4.68;;;14.50;99.90;;;;;;4591917;19;20007;-23
2023/05/26 01:54:13;;;;;;;6.75;4.60;;;14.50;99.90;;;;;;4591669;19;20074;-22
2023/05/26 01:55:44;;;;;;;6.28;4.22;;;14.50;99.90;;;;;;4591328;19;20010;-24
2023/05/26 01:57:16;;;;;;;7.07;4.80;;;14.50;99.90;;;;;;4591160;19;20006;-22
2023/05/26 01:58:47;;;;;;;6.23;4.23;;;14.50;99.90;;;;;;4591407;19;20010;-25
2023/05/26 02:00:25;;;;;;;10.48;6.10;;;14.50;99.90;;;;;;4591195;19;20022;-24
2023/05/26 02:01:56;;;;;;;11.45;6.53;;;14.50;99.90;;;;;;4591844;19;20011;-25
2023/05/26 02:03:28;;;;;;;;;;;14.50;99.90;;;;;;4593236;19;20044;-27
2023/05/26 02:04:59;;;;;;;8.30;5.45;;;14.50;99.90;;;;;;4592578;19;20254;-23
2023/05/26 02:06:31;;;;;;;7.15;5.10;;;14.50;99.90;;;;;;4592058;19;20016;-23
2023/05/26 02:08:04;;;;;;;8.00;4.93;;;14.50;99.90;;;;;;4592160;19;20014;-24
2023/05/26 02:09:36;;;;;;;7.13;4.68;;;14.40;99.90;;;;;;4591376;19;20018;-25
2023/05/26 02:11:07;;;;;;;6.88;4.55;;;14.40;99.90;;;;;;4590984;19;20504;-24
2023/05/26 02:12:39;;;;;;;7.40;4.75;;;14.40;99.90;;;;;;4591538;19;20499;-26
2023/05/26 02:14:11;;;;;;;9.65;4.28;;;14.40;99.90;;;;;;4590515;19;20011;-24
2023/05/26 02:15:42;;;;;;;6.93;4.45;;;14.40;99.90;;;;;;4591637;19;20010;-23
2023/05/26 02:17:17;;;;;;;6.97;4.68;;;14.30;99.90;;;;;;4591136;19;20083;-23
2023/05/26 02:18:51;;;;;;;6.25;3.92;;;14.30;99.90;;;;;;4591644;19;20007;-24
2023/05/26 02:20:22;;;;;;;5.85;4.10;;;14.30;99.90;;;;;;4591735;19;20344;-23
2023/05/26 02:21:54;;;;;;;6.18;4.10;;;14.30;99.90;;;;;;4592246;19;20098;-25
2023/05/26 02:23:27;;;;;;;5.53;4.00;;;14.30;99.90;;;;;;4591503;19;20018;-24
2023/05/26 02:24:58;;;;;;;6.47;4.63;;;14.30;99.90;;;;;;4591684;19;20014;-26
2023/05/26 02:26:30;;;;;;;7.50;4.75;;;14.30;99.90;;;;;;4591455;19;20358;-23
2023/05/26 02:28:01;;;;;;;6.78;4.20;;;14.30;99.90;;;;;;4592260;19;20015;-23
2023/05/26 02:29:34;;;;;;;8.02;5.28;;;14.30;99.90;;;;;;4591507;19;20014;-27
2023/05/26 02:31:06;;;;;;;7.25;4.65;;;14.30;99.90;;;;;;4591624;19;20074;-28
2023/05/26 02:32:40;;;;;;;7.05;4.38;;;14.30;99.90;;;;;;4592001;19;20022;-30
2023/05/26 02:34:11;;;;;;;7.10;4.65;;;14.30;99.90;;;;;;4592269;19;20448;-26
2023/05/26 02:35:43;;;;;;;6.93;4.00;;;14.30;99.90;;;;;;4591797;19;20045;-25
2023/05/26 02:37:17;;;;;;;7.43;4.30;;;14.20;99.90;;;;;;4590442;19;20372;-22
2023/05/26 02:38:48;;;;;;;7.50;4.35;;;14.20;99.90;;;;;;4591377;19;20018;-22
2023/05/26 02:40:21;;;;;;;6.28;4.43;;;14.20;99.90;;;;;;4592258;19;20438;-26
2023/05/26 02:41:53;;;;;;;8.27;5.00;;;14.20;99.90;;;;;;4591591;19;20002;-24
2023/05/26 02:43:24;;;;;;;12.88;7.93;;;14.20;99.90;;;;;;4591543;19;20022;-23
2023/05/26 02:44:58;;;;;;;14.20;8.13;;;14.20;99.90;;;;;;4591560;19;20002;-30
2023/05/26 02:46:29;;;;;;;14.05;8.38;;;14.20;99.90;;;;;;4590937;19;20334;-24
2023/05/26 02:48:02;;;;;;;10.40;6.80;;;14.20;99.90;;;;;;4591040;19;20020;-27
2023/05/26 02:49:35;;;;;;;11.45;6.20;;;14.20;99.90;;;;;;4591217;19;20035;-22
2023/05/26 02:51:06;;;;;;;7.83;5.30;;;14.20;99.90;;;;;;4591900;19;20034;-27
2023/05/26 02:52:37;;;;;;;7.10;4.63;;;14.20;99.90;;;;;;4591608;19;20479;-23
2023/05/26 02:54:09;;;;;;;7.90;4.88;;;14.20;99.90;;;;;;4590897;19;20441;-27
2023/05/26 02:55:41;;;;;;;7.85;4.88;;;14.10;99.90;;;;;;4591379;19;20017;-23
2023/05/26 02:57:12;;;;;;;8.95;4.78;;;14.20;99.90;;;;;;4591747;19;20010;-26
2023/05/26 02:58:44;;;;;;;7.55;4.88;;;14.10;99.90;;;;;;4591592;19;20010;-24
2023/05/26 03:00:18;;;;;;;7.38;4.97;;;14.10;99.90;;;;;;4590850;19;20017;-28
2023/05/26 03:01:49;;;;;;;7.90;5.20;;;14.10;99.90;;;;;;4588824;19;20081;-24
2023/05/26 03:03:22;;;;;;;9.90;5.00;;;14.10;99.90;;;;;;4590814;19;20017;-26
2023/05/26 03:04:54;;;;;;;7.10;5.03;;;14.10;99.90;;;;;;4591241;19;20496;-24
2023/05/26 03:06:27;;;;;;;8.85;5.00;;;14.10;99.90;;;;;;4590553;19;20010;-28
2023/05/26 03:07:58;;;;;;;9.57;5.10;;;14.10;99.90;;;;;;4589908;19;20015;-23
2023/05/26 03:09:29;;;;;;;9.68;5.70;;;14.10;99.90;;;;;;4589528;19;20010;-24
2023/05/26 03:11:01;;;;;;;8.40;4.97;;;14.10;99.90;;;;;;4590603;19;20030;-23
2023/05/26 03:12:34;;;;;;;9.05;5.30;;;14.10;99.90;;;;;;4589478;19;20503;-27
2023/05/26 03:14:05;;;;;;;6.95;4.75;;;14.10;99.90;;;;;;4590551;19;20010;-24
2023/05/26 03:15:36;;;;;;;8.80;5.68;;;14.10;99.90;;;;;;4591452;19;20009;-25
2023/05/26 03:17:08;;;;;;;7.07;4.85;;;14.10;99.90;;;;;;4590518;19;20015;-24
2023/05/26 03:18:40;;;;;;;8.75;4.95;;;14.10;99.90;;;;;;4589733;19;20018;-26
2023/05/26 03:20:11;;;;;;;9.57;5.60;;;14.10;99.90;;;;;;4590560;19;20003;-23
2023/05/26 03:21:46;;;;;;;8.43;5.70;;;14.10;99.90;;;;;;4589913;19;20003;-23
2023/05/26 03:23:18;;;;;;;8.23;5.87;;;14.10;99.90;;;;;;4589582;19;20011;-23
2023/05/26 03:24:50;;;;;;;8.70;5.70;;;14.10;99.90;;;;;;4590659;19;20476;-22
2023/05/26 03:26:22;;;;;;;9.93;5.65;;;14.10;99.90;;;;;;4590395;19;20103;-26
2023/05/26 03:27:54;;;;;;;7.18;5.00;;;14.00;99.90;;;;;;4590709;19;20082;-21
2023/05/26 03:29:27;;;;;;;8.70;5.28;;;14.00;99.90;;;;;;4590387;19;20366;-27
2023/05/26 03:30:59;;;;;;;8.80;5.65;;;14.00;99.90;;;;;;4590669;19;20018;-23
2023/05/26 03:32:31;;;;;;;8.25;6.13;;;14.00;99.90;;;;;;4590534;19;20018;-23
2023/05/26 03:34:04;;;;;;;10.70;6.13;;;14.00;99.90;;;;;;4590663;19;20066;-24
2023/05/26 03:35:36;;;;;;;8.48;5.80;;;14.00;99.90;;;;;;4590159;19;20030;-23
2023/05/26 03:37:10;;;;;;;7.63;5.15;;;14.10;99.90;;;;;;4590408;19;20419;-22
2023/05/26 03:38:42;;;;;;;8.38;5.47;;;14.00;99.90;;;;;;4587785;19;20011;-22
2023/05/26 03:40:15;;;;;;;9.05;5.32;;;14.10;99.90;;;;;;4587802;19;20025;-28
2023/05/26 03:41:49;;;;;;;13.23;6.85;;;14.00;99.90;;;;;;4587886;19;20351;-23
2023/05/26 03:43:21;;;;;;;9.10;6.30;;;14.00;99.90;;;;;;4587757;19;20042;-22
2023/05/26 03:44:53;;;;;;;9.95;6.15;;;14.00;99.90;;;;;;4588585;19;20011;-28
2023/05/26 03:46:24;;;;;;;9.98;6.00;;;14.10;99.90;;;;;;4587619;19;20010;-23
2023/05/26 03:47:56;;;;;;;9.33;5.63;;;14.10;99.90;;;;;;4587840;19;20035;-23
2023/05/26 03:49:28;;;;;;;8.48;5.28;;;14.10;99.90;;;;;;4587859;19;20508;-23
2023/05/26 03:50:59;;;;;;;7.93;5.40;;;14.10;99.90;;;;;;4588438;19;20009;-24
2023/05/26 03:52:30;;;;;;;9.55;5.50;;;14.20;99.90;;;;;;4587864;19;20488;-27
2023/05/26 03:54:02;;;;;;;8.85;5.20;;;14.20;99.90;;;;;;4587385;19;20086;-23
2023/05/26 03:55:36;;;;;;;9.27;5.15;;;14.20;99.90;;;;;;4588118;19;20074;-24
2023/05/26 03:57:07;;;;;;;9.30;5.68;;;14.20;99.90;;;;;;4588299;19;20128;-23
2023/05/26 03:58:41;;;;;;;9.30;6.18;;;14.20;99.90;;;;;;4587584;19;20015;-25
2023/05/26 04:00:13;;;;;;;8.30;5.32;;;14.20;99.90;;;;;;4587981;19;20035;-26
2023/05/26 04:01:44;;;;;;;8.98;5.40;;;14.20;99.90;;;;;;4587888;19;20003;-22
2023/05/26 04:03:17;;;;;;;7.20;4.50;;;14.30;99.90;;;;;;4588051;19;20019;-26
2023/05/26 04:04:48;;;;;;;8.77;5.30;;;14.30;99.90;;;;;;4587604;19;20049;-26
2023/05/26 04:06:19;;;;;;;8.57;5.60;;;14.30;99.90;;;;;;4588160;19;20019;-23
2023/05/26 04:07:52;;;;;;;6.75;5.10;;;14.30;99.90;;;;;;4586324;19;20010;-28
2023/05/26 04:09:23;;;;;;;6.95;5.28;;;14.30;99.90;;;;;;4586787;19;20477;-24
2023/05/26 04:10:55;;;;;;;8.55;4.90;;;14.20;99.90;;;;;;4589770;19;20010;-24
2023/05/26 04:12:26;;;;;;;;;;;14.20;99.90;;;;;;4588795;19;20096;-27
2023/05/26 04:13:57;;;;;;;7.97;4.47;;;14.20;99.90;;;;;;4590760;19;19919;-25
2023/05/26 04:15:29;;;;;;;6.63;4.32;;;14.30;99.90;;;;;;4595102;19;20018;-24
2023/05/26 04:17:00;;;;;;;8.40;4.70;;;14.20;99.90;;;;;;4594731;19;20018;-23
2023/05/26 04:18:34;;;;;;;8.15;4.65;;;14.20;99.90;;;;;;4594328;19;20022;-25
2023/05/26 04:20:07;;;;;;;7.13;4.60;;;14.20;99.90;;;;;;4594293;19;20014;-24
2023/05/26 04:21:40;;;;;;;7.73;4.40;;;14.20;99.90;;;;;;4593827;19;20373;-26
2023/05/26 04:23:11;;;;;;;8.68;4.68;;;14.20;99.90;;;;;;4593471;19;20022;-26
2023/05/26 04:24:42;;;;;;;6.95;4.35;;;14.20;99.90;;;;;;4589199;19;20026;-23
2023/05/26 04:26:16;;;;;;;8.13;4.95;;;14.20;99.90;;;;;;4593264;19;20027;-27
2023/05/26 04:27:47;;;;;;;7.25;4.78;;;14.20;99.90;;;;;;4590768;19;20078;-24
2023/05/26 04:29:20;;;;;;;8.02;5.07;;;14.20;99.90;;;;;;4592402;19;20022;-24
2023/05/26 04:30:52;;;;;;;7.55;4.70;;;14.20;99.90;;;;;;4594873;19;20048;-24
2023/05/26 04:32:27;;;;;;;9.47;5.23;;;14.20;99.90;;;;;;4594731;19;20478;-26
2023/05/26 04:33:59;;;;;;;9.38;6.18;;;14.20;99.90;;;;;;4594638;19;20024;-22
2023/05/26 04:35:30;;;;;;;10.48;5.65;;;14.30;99.90;;;;;;4594211;19;20019;-26
2023/05/26 04:37:04;;;;;;;6.65;4.35;;;14.30;99.90;;;;;;4593885;19;20025;-24
2023/05/26 04:38:36;;;;;;;8.20;5.00;;;14.30;99.90;;;;;;4592579;19;20023;-23
2023/05/26 04:40:09;;;;;;;9.45;5.20;;;14.30;99.90;;;;;;4591695;19;20076;-24
2023/05/26 04:41:44;;;;;;;7.93;4.90;;;14.30;99.90;;;;;;4592293;19;20095;-24
2023/05/26 04:43:15;;;;;;;7.38;3.90;;;14.30;99.90;;;;;;4592782;19;20007;-25
2023/05/26 04:44:47;;;;;;;8.25;4.65;;;14.40;99.90;;;;;;4592225;19;20338;-22
2023/05/26 04:46:19;;;;;;;7.88;4.43;;;14.40;99.90;;;;;;4591712;19;20380;-24
2023/05/26 04:47:54;;;;;;;7.28;3.58;;;14.40;99.90;;;;;;4590233;19;20069;-26
2023/05/26 04:49:27;;;;;;;6.63;4.43;;;14.40;99.90;;;;;;4594847;19;20006;-22
2023/05/26 04:50:58;;;;;;;6.70;3.90;;;14.40;99.90;;;;;;4592692;19;20018;-23
2023/05/26 04:52:30;;;;;;;;;;;14.40;99.90;;;;;;4594218;19;20015;-29
2023/05/26 04:54:01;;;;;;;8.37;4.40;;;14.40;99.90;;;;;;4593085;19;19922;-24
2023/05/26 04:55:35;;;;;;;5.53;3.83;;;14.40;99.90;;;;;;4593346;19;20500;-25
2023/05/26 04:57:07;;;;;;;9.65;4.43;;;14.40;99.90;;;;;;4592358;19;20503;-24
2023/05/26 04:58:39;;;;;;;8.23;4.68;;;14.50;99.90;;;;;;4592537;19;20018;-27
2023/05/26 05:00:12;;;;;;;6.88;4.28;;;14.40;99.90;;;;;;4592089;19;20014;-24
2023/05/26 05:01:46;;;;;;;8.30;4.70;;;14.40;99.90;;;;;;4591882;19;20015;-24
2023/05/26 05:03:18;;;;;;;7.85;4.07;;;14.50;99.90;;;;;;4591326;19;20018;-26
2023/05/26 05:04:49;;;;;;;7.18;4.28;;;14.50;99.90;;;;;;4594164;19;20014;-24
2023/05/26 05:06:21;;;;;;;10.43;4.78;;;14.50;99.90;;;;;;4593487;19;20010;-24
2023/05/26 05:07:52;;;;;;;9.00;5.03;;;14.50;99.90;;;;;;4592501;19;20026;-27
2023/05/26 05:09:23;;;;;;;10.80;5.50;;;14.50;99.90;;;;;;4592951;19;20015;-24
2023/05/26 05:10:54;;;;;;;8.82;4.43;;;14.50;99.90;;;;;;4591827;19;20034;-24
2023/05/26 05:12:26;;;;;;;;;;;14.50;99.90;;;;;;4592410;19;20035;-27
2023/05/26 05:13:57;;;;;;;10.95;5.65;;;14.50;99.90;;;;;;4591456;19;19956;-25
2023/05/26 05:15:28;;;;;;;7.88;4.30;;;14.60;99.90;;;;;;4591141;19;20014;-25
2023/05/26 05:17:00;;;;;;;7.63;4.20;;;14.60;99.90;;;;;;4591207;19;20015;-23
2023/05/26 05:18:31;;;;;;;8.00;3.90;;;14.50;99.90;;;;;;4590371;19;20101;-29
2023/05/26 05:20:05;;;;;;;7.60;3.88;;;14.60;99.90;;;;;;4592388;19;20135;-24
2023/05/26 05:21:37;;;;;;;7.38;4.03;;;14.50;99.90;;;;;;4593014;19;20014;-23
2023/05/26 05:23:08;;;;;;;6.53;4.13;;;14.60;99.90;;;;;;4591711;19;20495;-24
2023/05/26 05:24:41;;;;;;;7.20;4.07;;;14.60;99.90;;;;;;4590164;19;20018;-23
2023/05/26 05:26:13;;;;;;;8.55;3.90;;;14.60;99.90;;;;;;4592214;19;20489;-24
2023/05/26 05:27:45;;;;;;;;;;;14.60;99.90;;;;;;4591367;19;20022;-23
2023/05/26 05:29:16;;;;;;;8.15;4.15;;;14.60;99.90;;;;;;4591222;19;19918;-23
2023/05/26 05:30:47;;;;;;;7.68;4.65;;;14.60;99.90;;;;;;4591763;19;20011;-24
2023/05/26 05:32:19;;;;;;;7.50;3.40;;;14.60;99.90;;;;;;4590766;19;20020;-24
2023/05/26 05:33:51;;;;;;;8.25;4.38;;;14.60;99.90;;;;;;4590766;19;20011;-24
2023/05/26 05:35:23;;;;;;;7.57;3.92;;;14.60;99.90;;;;;;4593704;19;20015;-26
2023/05/26 05:36:54;;;;;;;7.07;4.15;;;14.60;99.90;;;;;;4592237;19;20035;-24
2023/05/26 05:38:25;;;;;;;8.15;3.72;;;14.60;99.90;;;;;;4591799;19;20081;-26
2023/05/26 05:39:57;;;;;;;8.32;3.92;;;14.70;99.90;;;;;;4591359;19;20023;-23
2023/05/26 05:41:30;;;;;;;8.38;4.32;;;14.70;99.90;;;;;;4593127;19;20044;-24
2023/05/26 05:43:03;;;;;;;8.55;4.97;;;14.70;99.90;;;;;;4592266;19;20003;-24
2023/05/26 05:44:35;;;;;;;7.35;4.32;;;14.70;99.90;;;;;;4592982;19;20344;-23
2023/05/26 05:46:06;;;;;;;;;;;14.70;99.90;;;;;;4593793;19;20019;-25
2023/05/26 05:47:37;;;;;;;8.65;4.82;;;14.70;99.90;;;;;;4591668;19;19923;-25
2023/05/26 05:49:09;;;;;;;;;;;14.70;99.90;;;;;;4591662;19;20023;-23
2023/05/26 05:50:40;;;;;;;9.23;4.90;;;14.70;99.90;;;;;;4591137;19;20293;-27
2023/05/26 05:52:14;;;;;;;8.52;4.88;;;14.70;99.90;;;;;;4591306;19;20021;-27
2023/05/26 05:53:46;;;;;;;9.07;4.53;;;14.70;99.90;;;;;;4592010;19;20009;-23
2023/05/26 05:55:18;;;;;;;6.50;3.30;;;14.70;99.90;;;;;;4591126;19;20018;-24
2023/05/26 05:56:51;;;;;;;7.55;3.95;;;14.70;99.90;;;;;;4591670;19;20029;-23
2023/05/26 05:58:24;;;;;;;6.70;3.83;;;14.80;99.90;;;;;;4593007;19;20026;-25
2023/05/26 05:59:55;;;;;;;8.05;4.07;;;14.80;99.90;;;;;;4592200;19;20026;-22
2023/05/26 06:01:26;;;;;;;8.10;4.43;;;14.80;99.90;;;;;;4590727;19;20074;-24
2023/05/26 06:02:57;;;;;;;7.28;3.60;;;14.80;99.90;;;;;;4591837;19;20006;-23
2023/05/26 06:04:30;;;;;;;9.02;4.00;;;14.80;99.90;;;;;;4592117;19;20322;-22
2023/05/26 06:06:02;;;;;;;9.73;4.30;;;14.80;99.90;;;;;;4591948;19;20023;-23
2023/05/26 06:07:34;;;;;;;7.28;4.05;;;14.80;99.90;;;;;;4591125;19;20077;-28
2023/05/26 06:09:05;;;;;;;5.82;3.60;;;14.80;99.90;;;;;;4592005;19;20010;-24
2023/05/26 06:10:36;;;;;;;6.50;3.45;;;14.80;99.90;;;;;;4591191;19;20011;-22
2023/05/26 06:12:08;;;;;;;7.72;4.15;;;14.80;99.90;;;;;;4591454;19;20014;-23
2023/05/26 06:13:39;;;;;;;9.23;4.13;;;14.90;99.90;;;;;;4591901;19;20031;-24
2023/05/26 06:15:11;;;;;;;8.57;3.45;;;14.90;99.90;;;;;;4591730;19;20007;-25
2023/05/26 06:16:42;;;;;;;7.80;3.47;;;14.90;99.90;;;;;;4591830;19;20007;-25
2023/05/26 06:18:15;;;;;;;6.28;3.13;;;14.90;99.90;;;;;;4591929;19;20019;-26
2023/05/26 06:19:48;;;;;;;6.35;3.28;;;14.90;99.90;;;;;;4591057;19;20374;-24
2023/05/26 06:21:20;;;;;;;10.95;4.13;;;14.90;99.90;;;;;;4591880;19;20022;-23
2023/05/26 06:22:53;;;;;;;8.25;4.72;;;15.00;99.90;;;;;;4592506;19;20086;-23
2023/05/26 06:24:24;;;;;;;8.45;4.07;;;15.00;99.90;;;;;;4588747;19;20019;-27
2023/05/26 06:25:57;;;;;;;8.95;3.72;;;14.90;99.90;;;;;;4590986;19;20019;-24
2023/05/26 06:27:29;;;;;;;7.47;3.70;;;14.90;99.90;;;;;;4589772;19;20035;-27
2023/05/26 06:29:01;;;;;;;7.18;3.42;;;15.00;99.90;;;;;;4591330;19;20011;-24
2023/05/26 06:30:33;;;;;;;9.98;4.72;;;15.00;99.90;;;;;;4591598;19;20027;-25
2023/05/26 06:32:06;;;;;;;9.77;3.60;;;15.00;99.90;;;;;;4589282;19;20022;-24
2023/05/26 06:33:38;;;;;;;6.60;3.60;;;15.00;99.90;;;;;;4590371;19;20014;-24
2023/05/26 06:35:09;;;;;;;;;;;15.00;99.90;;;;;;4591534;19;20014;-24
2023/05/26 06:36:41;;;;;;;6.57;3.70;;;15.10;99.90;;;;;;4589519;19;19939;-24
2023/05/26 06:38:15;;;;;;;7.88;3.72;;;15.10;99.90;;;;;;4590882;19;20011;-24
2023/05/26 06:39:46;;;;;;;9.70;3.35;;;15.10;99.90;;;;;;4591290;19;20010;-23
2023/05/26 06:41:18;;;;;;;6.25;3.45;;;15.10;99.90;;;;;;4589683;19;20476;-24
2023/05/26 06:42:49;;;;;;;7.55;3.67;;;15.10;99.90;;;;;;4590228;19;20011;-28
2023/05/26 06:44:23;;;;;;;7.10;2.88;;;15.10;99.90;;;;;;4590727;19;20005;-23
2023/05/26 06:45:55;;;;;;;7.53;3.85;;;15.10;99.90;;;;;;4590422;19;20040;-26
2023/05/26 06:47:31;;;;;;;6.63;3.60;;;15.10;99.90;;;;;;4589685;19;20486;-22
2023/05/26 06:49:06;;;;;;;7.18;3.17;;;15.20;99.90;;;;;;4590279;19;20052;-24
2023/05/26 06:50:37;;;;;;;6.55;3.10;;;15.20;99.90;;;;;;4589748;19;20013;-26
2023/05/26 06:52:08;;;;;;;7.85;3.45;;;15.20;99.90;;;;;;4591047;19;20044;-24
2023/05/26 06:53:40;;;;;;;;;;;15.20;99.90;;;;;;4590492;19;20015;-28
2023/05/26 06:55:13;;;;;;;7.43;4.05;;;15.20;99.90;;;;;;4590971;19;19925;-22
2023/05/26 06:56:44;;;;;;;5.13;2.50;;;15.20;99.90;;;;;;4590953;19;20010;-25
2023/05/26 06:58:16;;;;;;;6.30;3.03;;;15.20;99.90;;;;;;4590739;19;20465;-28
2023/05/26 06:59:47;;;;;;;;;;;15.30;99.90;;;;;;4591030;19;20027;-23
2023/05/26 07:01:22;;;;;;;7.05;2.97;;;15.30;99.90;;;;;;4591048;19;19926;-26
2023/05/26 07:03:00;;;;;;;6.20;2.92;;;15.30;99.90;;;;;;4589810;19;20006;-24
2023/05/26 07:04:36;;;;;;;8.75;3.45;;;15.30;99.90;;;;;;4590764;19;20021;-24
2023/05/26 07:06:11;;;;;;;6.15;2.90;;;15.40;99.90;;;;;;4590303;19;20016;-24
2023/05/26 07:07:43;;;;;;;6.68;2.80;;;15.40;99.90;;;;;;4588559;19;20027;-28
2023/05/26 07:09:15;;;;;;;5.60;2.42;;;15.40;99.90;;;;;;4589946;19;20014;-23
2023/05/26 07:10:49;;;;;;;6.18;2.97;;;15.40;99.90;;;;;;4590519;19;20018;-23
2023/05/26 07:12:26;;;;;;;6.97;3.03;;;15.40;99.90;;;;;;4589175;19;20018;-23
2023/05/26 07:14:01;;;;;;;5.85;2.90;;;15.40;99.90;;;;;;4590643;19;20084;-28
2023/05/26 07:15:35;;;;;;;4.90;2.65;;;15.40;99.90;;;;;;4590232;19;20011;-24
2023/05/26 07:17:06;;;;;;;5.80;3.08;;;15.50;99.90;;;;;;4590347;19;20381;-23
2023/05/26 07:18:38;;;;;;;5.78;3.03;;;15.50;99.90;;;;;;4589898;19;20011;-24
2023/05/26 07:20:11;;;;;;;5.38;2.25;;;15.50;99.90;;;;;;4590599;19;20480;-23
2023/05/26 07:21:43;;;;;;;7.57;3.08;;;15.50;99.90;;;;;;4590860;19;20027;-25
2023/05/26 07:23:15;;;;;;;6.82;2.67;;;15.60;99.90;;;;;;4589165;19;20003;-23
2023/05/26 07:24:47;;;;;;;5.25;2.53;;;15.50;99.90;;;;;;4589111;19;20015;-21
2023/05/26 07:26:18;;;;;;;5.32;2.45;;;15.60;99.90;;;;;;4590266;19;20077;-24
2023/05/26 07:27:51;;;;;;;6.20;2.80;;;15.60;99.90;;;;;;4588873;19;20012;-24
2023/05/26 07:29:23;;;;;;;6.20;2.60;;;15.60;99.90;;;;;;4592605;19;20357;-25
2023/05/26 07:31:00;;;;;;;6.53;2.70;;;15.60;99.90;;;;;;4592858;19;20018;-28
2023/05/26 07:32:32;;;;;;;6.10;2.72;;;15.70;99.90;;;;;;4589267;19;20025;-25
2023/05/26 07:34:03;;;;;;;3.95;2.30;;;15.70;99.90;;;;;;4589520;19;20013;-22
2023/05/26 07:35:35;;;;;;;6.95;2.55;;;15.70;99.90;;;;;;4589695;19;20480;-24
2023/05/26 07:37:07;;;;;;;6.63;2.70;;;15.70;99.90;;;;;;4589803;19;20078;-25
2023/05/26 07:38:48;;;;;;;6.43;2.63;;;15.80;99.90;;;;;;4590601;19;20006;-22
2023/05/26 07:40:22;;;;;;;6.78;3.08;;;15.70;99.90;;;;;;4589077;19;20014;-23
2023/05/26 07:41:53;;;;;;;5.90;2.78;;;15.70;99.90;;;;;;4589092;19;20015;-24
2023/05/26 07:43:24;;;;;;;;;;;15.80;99.90;;;;;;4589574;19;20063;-24
2023/05/26 07:44:56;;;;;;;6.13;2.65;;;15.80;99.90;;;;;;4589958;19;20007;-25
2023/05/26 07:46:27;;;;;;;7.10;2.75;;;15.80;99.90;;;;;;4589551;19;20032;-23
2023/05/26 07:47:59;;;;;;;5.45;2.65;;;15.80;99.90;;;;;;4587539;19;20179;-29
2023/05/26 07:49:33;;;;;;;4.90;2.72;;;15.80;99.90;;;;;;4588601;19;20025;-22
2023/05/26 07:51:05;;;;;;;7.68;2.53;;;15.80;99.90;;;;;;4588790;19;20072;-23
2023/05/26 07:52:41;;;;;;;6.97;2.83;;;15.80;99.90;;;;;;4590150;19;20006;-28
2023/05/26 07:54:13;;;;;;;7.03;2.72;;;15.80;99.90;;;;;;4587183;19;20093;-22
2023/05/26 07:55:44;;;;;;;5.22;2.63;;;15.80;99.90;;;;;;4588333;19;20384;-29
2023/05/26 07:57:15;;;;;;;5.63;2.83;;;15.90;99.90;;;;;;4588974;19;20010;-24
2023/05/26 07:58:56;;;;;;;8.40;2.60;;;15.90;99.90;;;;;;4589294;19;19999;-26
2023/05/26 08:00:28;;;;;;;7.38;3.58;;;15.90;99.90;;;;;;4588315;19;20014;-24
2023/05/26 08:02:01;;;;;;;6.15;2.60;;;15.90;99.90;;;;;;4588491;19;20015;-21
2023/05/26 08:03:33;;;;;;;6.70;3.00;;;15.90;99.90;;;;;;4589465;19;20003;-26
2023/05/26 08:05:05;;;;;;;6.95;3.17;;;15.90;99.90;;;;;;4589203;19;20513;-22